createdAt,value
2022-11-14T00:00:14.718Z,22.01
2022-11-14T00:02:41.327Z,22.01
2022-11-14T00:05:08.879Z,22.00
2022-11-14T00:07:35.463Z,22.01
2022-11-14T00:10:02.019Z,22.01
2022-11-14T00:12:28.614Z,22.00
2022-11-14T00:14:55.940Z,22.00
2022-11-14T00:17:22.473Z,22.00
2022-11-14T00:19:48.995Z,22.01
2022-11-14T00:22:15.473Z,22.01
2022-11-14T00:24:41.951Z,22.01
2022-11-14T00:27:08.511Z,22.01
2022-11-14T00:29:35.038Z,22.01
2022-11-14T00:32:01.515Z,22.01
2022-11-14T00:34:28.047Z,22.01
2022-11-14T00:36:54.526Z,22.02
2022-11-14T00:39:21.026Z,21.96
2022-11-14T00:41:47.498Z,22.02
2022-11-14T00:44:13.987Z,22.02
2022-11-14T00:46:40.495Z,22.01
2022-11-14T00:49:07.042Z,22.01
2022-11-14T00:51:33.639Z,22.01
2022-11-14T00:54:00.115Z,22.01
2022-11-14T00:56:26.602Z,21.98
2022-11-14T00:58:53.110Z,21.96
2022-11-14T01:01:19.712Z,22.00
2022-11-14T01:03:50.191Z,22.00
2022-11-14T01:06:16.818Z,22.00
2022-11-14T01:08:43.801Z,22.01
2022-11-14T01:11:12.678Z,22.01
2022-11-14T01:13:39.463Z,22.01
2022-11-14T01:16:06.362Z,21.99
2022-11-14T01:18:32.936Z,22.02
2022-11-14T01:20:59.432Z,22.02
2022-11-14T01:23:25.928Z,22.01
2022-11-14T01:25:52.403Z,22.02
2022-11-14T01:28:19.409Z,22.02
2022-11-14T01:30:45.961Z,22.02
2022-11-14T01:33:12.448Z,21.98
2022-11-14T01:35:38.957Z,21.99
2022-11-14T01:38:05.695Z,21.98
2022-11-14T01:40:32.452Z,22.01
2022-11-14T01:43:11.100Z,22.02
2022-11-14T01:45:51.827Z,22.02
2022-11-14T01:48:22.666Z,21.97
2022-11-14T01:50:52.771Z,22.02
2022-11-14T01:53:19.262Z,22.03
2022-11-14T01:55:45.957Z,21.95
2022-11-14T01:58:12.597Z,21.99
2022-11-14T02:00:39.094Z,22.01
2022-11-14T02:03:05.606Z,22.02
2022-11-14T02:05:32.090Z,22.01
2022-11-14T02:07:58.599Z,22.02
2022-11-14T02:10:25.088Z,21.96
2022-11-14T02:12:51.608Z,22.01
2022-11-14T02:15:18.106Z,21.94
2022-11-14T02:17:44.684Z,22.01
2022-11-14T02:20:11.504Z,22.01
2022-11-14T02:22:41.774Z,22.02
2022-11-14T02:25:09.171Z,21.99
2022-11-14T02:27:35.694Z,21.97
2022-11-14T02:30:06.963Z,21.91
2022-11-14T02:32:56.885Z,22.00
2022-11-14T02:35:19.981Z,22.01
2022-11-14T02:37:46.506Z,22.01
2022-11-14T02:40:13.032Z,22.02
2022-11-14T02:42:39.531Z,22.01
2022-11-14T02:45:06.563Z,22.01
2022-11-14T02:47:33.167Z,21.96
2022-11-14T02:49:59.658Z,22.02
2022-11-14T02:52:26.250Z,21.98
2022-11-14T02:54:54.654Z,22.01
2022-11-14T02:57:21.361Z,22.01
2022-11-14T02:59:47.856Z,22.01
2022-11-14T03:02:14.401Z,22.01
2022-11-14T03:04:40.948Z,22.00
2022-11-14T03:07:07.482Z,22.03
2022-11-14T03:09:34.035Z,21.97
2022-11-14T03:12:00.519Z,22.01
2022-11-14T03:14:27.098Z,22.02
2022-11-14T03:16:55.287Z,22.01
2022-11-14T03:19:21.793Z,22.01
2022-11-14T03:21:48.305Z,22.00
2022-11-14T03:24:14.776Z,21.95
2022-11-14T03:26:41.282Z,21.99
2022-11-14T03:29:08.077Z,22.00
2022-11-14T03:31:34.587Z,22.00
2022-11-14T03:34:01.082Z,21.98
2022-11-14T03:36:27.564Z,21.99
2022-11-14T03:38:54.247Z,21.99
2022-11-14T03:41:20.755Z,22.00
2022-11-14T03:43:47.278Z,22.00
2022-11-14T03:46:13.755Z,21.96
2022-11-14T03:48:40.278Z,22.00
2022-11-14T03:51:06.759Z,21.97
2022-11-14T03:53:33.271Z,22.00
2022-11-14T03:55:59.812Z,22.01
2022-11-14T03:58:26.472Z,22.00
2022-11-14T04:00:55.756Z,22.01
2022-11-14T04:03:23.345Z,22.00
2022-11-14T04:05:49.881Z,22.00
2022-11-14T04:08:16.400Z,21.96
2022-11-14T04:10:42.953Z,22.00
2022-11-14T04:13:09.521Z,21.99
2022-11-14T04:15:36.027Z,21.97
2022-11-14T04:18:02.511Z,21.99
2022-11-14T04:20:29.050Z,21.99
2022-11-14T04:22:55.635Z,21.99
2022-11-14T04:25:22.153Z,21.97
2022-11-14T04:27:48.634Z,21.95
2022-11-14T04:30:15.234Z,21.99
2022-11-14T04:32:41.726Z,22.00
2022-11-14T04:35:08.618Z,22.01
2022-11-14T04:37:35.205Z,22.00
2022-11-14T04:40:02.785Z,22.00
2022-11-14T04:42:29.326Z,22.00
2022-11-14T04:44:55.887Z,22.01
2022-11-14T04:47:22.533Z,22.01
2022-11-14T04:49:49.019Z,22.01
2022-11-14T04:52:15.546Z,22.00
2022-11-14T04:54:42.049Z,21.98
2022-11-14T04:57:08.529Z,21.96
2022-11-14T04:59:35.092Z,22.01
2022-11-14T05:02:01.824Z,22.02
2022-11-14T05:04:28.366Z,22.03
2022-11-14T05:06:54.912Z,22.03
2022-11-14T05:09:21.567Z,22.03
2022-11-14T05:11:48.127Z,22.04
2022-11-14T05:14:14.653Z,22.03
2022-11-14T05:16:41.182Z,22.03
2022-11-14T05:19:07.702Z,22.03
2022-11-14T05:21:34.224Z,22.02
2022-11-14T05:24:00.837Z,22.01
2022-11-14T05:26:27.334Z,22.03
2022-11-14T05:28:53.818Z,22.03
2022-11-14T05:31:20.371Z,22.01
2022-11-14T05:33:47.171Z,22.04
2022-11-14T05:36:15.111Z,22.04
2022-11-14T05:38:41.835Z,22.03
2022-11-14T05:41:12.243Z,22.03
2022-11-14T05:43:38.941Z,22.04
2022-11-14T05:46:06.619Z,22.04
2022-11-14T05:48:33.521Z,22.01
2022-11-14T05:51:01.526Z,22.02
2022-11-14T05:53:28.746Z,22.03
2022-11-14T05:55:55.398Z,22.03
2022-11-14T05:58:22.135Z,21.96
2022-11-14T06:00:53.891Z,22.02
2022-11-14T06:03:20.939Z,22.02
2022-11-14T06:05:47.431Z,21.97
2022-11-14T06:08:13.996Z,22.03
2022-11-14T06:10:40.507Z,22.03
2022-11-14T06:13:07.025Z,22.03
2022-11-14T06:15:33.554Z,22.03
2022-11-14T06:18:00.140Z,22.03
2022-11-14T06:20:26.647Z,22.04
2022-11-14T06:22:55.882Z,22.04
2022-11-14T06:25:22.398Z,22.04
2022-11-14T06:27:48.943Z,22.03
2022-11-14T06:30:15.759Z,22.03
2022-11-14T06:32:42.294Z,22.02
2022-11-14T06:35:08.925Z,22.00
2022-11-14T06:37:38.374Z,22.01
2022-11-14T06:40:05.347Z,22.00
2022-11-14T06:42:31.828Z,21.99
2022-11-14T06:44:58.342Z,21.98
2022-11-14T06:47:24.861Z,21.98
2022-11-14T06:49:51.375Z,21.98
2022-11-14T06:52:17.874Z,21.98
2022-11-14T06:54:44.370Z,21.97
2022-11-14T06:57:10.851Z,21.97
2022-11-14T06:59:37.403Z,21.95
2022-11-14T07:02:04.128Z,21.96
2022-11-14T07:04:30.634Z,21.96
2022-11-14T07:06:57.143Z,21.97
2022-11-14T07:09:23.719Z,21.97
2022-11-14T07:11:50.216Z,21.97
2022-11-14T07:14:16.717Z,21.98
2022-11-14T07:16:43.316Z,21.98
2022-11-14T07:19:09.847Z,21.95
2022-11-14T07:21:36.550Z,21.95
2022-11-14T07:24:03.191Z,21.99
2022-11-14T07:26:29.717Z,21.96
2022-11-14T07:29:01.806Z,22.00
2022-11-14T07:31:29.176Z,21.96
2022-11-14T07:33:55.732Z,22.00
2022-11-14T07:36:22.276Z,22.01
2022-11-14T07:38:48.755Z,22.01
2022-11-14T07:41:15.985Z,21.96
2022-11-14T07:43:42.655Z,22.02
2022-11-14T07:46:14.587Z,21.35
2022-11-14T07:48:41.148Z,22.02
2022-11-14T07:51:09.654Z,22.01
2022-11-14T07:53:36.210Z,22.00
2022-11-14T07:56:04.702Z,22.00
2022-11-14T07:58:31.495Z,21.96
2022-11-14T08:01:02.765Z,21.93
2022-11-14T08:03:29.382Z,21.92
2022-11-14T08:06:03.495Z,21.93
2022-11-14T08:08:30.277Z,21.97
2022-11-14T08:11:00.592Z,21.93
2022-11-14T08:13:32.809Z,21.96
2022-11-14T08:16:09.135Z,21.94
2022-11-14T08:18:38.695Z,21.90
2022-11-14T08:21:05.485Z,21.96
2022-11-14T08:23:33.183Z,21.91
2022-11-14T08:26:00.097Z,21.89
2022-11-14T08:28:26.872Z,21.97
2022-11-14T08:30:53.563Z,21.98
2022-11-14T08:33:20.070Z,21.98
2022-11-14T08:35:46.579Z,21.99
2022-11-14T08:38:13.122Z,21.97
2022-11-14T08:40:39.979Z,21.99
2022-11-14T08:43:06.482Z,21.98
2022-11-14T08:45:33.039Z,22.00
2022-11-14T08:47:59.493Z,22.02
2022-11-14T08:50:25.960Z,21.99
2022-11-14T08:52:52.581Z,22.02
2022-11-14T08:55:19.897Z,22.02
2022-11-14T08:57:49.365Z,22.02
2022-11-14T09:00:16.697Z,22.03
2022-11-14T09:02:43.199Z,22.02
2022-11-14T09:05:09.797Z,22.02
2022-11-14T09:07:36.334Z,21.97
2022-11-14T09:10:03.186Z,22.01
2022-11-14T09:12:29.909Z,22.03
2022-11-14T09:14:56.377Z,22.02
2022-11-14T09:17:24.968Z,22.02
2022-11-14T09:19:51.565Z,22.02
2022-11-14T09:22:18.101Z,22.03
2022-11-14T09:24:47.363Z,21.98
2022-11-14T09:27:14.169Z,21.96
2022-11-14T09:29:40.677Z,22.02
2022-11-14T09:32:07.153Z,22.04
2022-11-14T09:34:33.719Z,22.04
2022-11-14T09:37:00.206Z,22.05
2022-11-14T09:39:26.884Z,22.05
2022-11-14T09:42:16.926Z,22.06
2022-11-14T09:44:43.896Z,22.05
2022-11-14T09:47:16.769Z,22.05
2022-11-14T09:49:47.361Z,21.96
2022-11-14T09:52:26.045Z,22.03
2022-11-14T09:54:56.906Z,22.02
2022-11-14T09:57:23.400Z,21.98
2022-11-14T09:59:49.918Z,21.90
2022-11-14T10:02:36.552Z,21.96
2022-11-14T10:05:13.898Z,21.99
2022-11-14T10:08:05.572Z,21.98
2022-11-14T10:10:48.922Z,21.89
2022-11-14T10:13:52.846Z,21.97
2022-11-14T10:17:10.591Z,21.97
2022-11-14T10:19:43.041Z,21.98
2022-11-14T10:22:45.068Z,21.98
2022-11-14T10:25:42.620Z,21.98
2022-11-14T10:28:29.770Z,21.90
2022-11-14T10:31:16.981Z,21.98
2022-11-14T10:34:12.171Z,21.97
2022-11-14T10:36:59.706Z,21.97
2022-11-14T10:39:40.060Z,21.97
2022-11-14T10:42:15.759Z,21.97
2022-11-14T10:44:50.532Z,21.97
2022-11-14T10:47:18.538Z,21.88
2022-11-14T10:49:45.046Z,21.97
2022-11-14T10:52:14.108Z,21.98
2022-11-14T10:55:03.398Z,21.97
2022-11-14T10:57:29.886Z,21.98
2022-11-14T10:59:56.414Z,21.97
2022-11-14T11:02:22.964Z,21.91
2022-11-14T11:04:49.521Z,21.99
2022-11-14T11:07:44.453Z,22.00
2022-11-14T11:10:40.864Z,21.98
2022-11-14T11:13:11.261Z,22.01
2022-11-14T11:15:41.448Z,22.01
2022-11-14T11:18:33.181Z,22.00
2022-11-14T11:21:03.095Z,22.00
2022-11-14T11:23:29.633Z,22.01
2022-11-14T11:26:09.064Z,21.81
2022-11-14T11:28:36.352Z,22.01
2022-11-14T11:31:10.538Z,21.93
2022-11-14T11:33:38.148Z,22.02
2022-11-14T11:36:18.616Z,22.01
2022-11-14T11:38:45.092Z,21.96
2022-11-14T11:44:18.508Z,22.00
2022-11-14T11:46:45.151Z,22.03
2022-11-14T11:49:18.152Z,22.04
2022-11-14T11:51:45.550Z,22.04
2022-11-14T11:54:44.446Z,22.03
2022-11-14T11:57:18.538Z,22.03
2022-11-14T11:59:49.923Z,22.01
2022-11-14T12:02:22.798Z,22.02
2022-11-14T12:04:50.073Z,22.00
2022-11-14T12:07:21.226Z,21.99
2022-11-14T12:10:09.855Z,22.02
2022-11-14T12:12:56.761Z,22.02
2022-11-14T12:15:28.195Z,22.02
2022-11-14T12:18:13.461Z,22.02
2022-11-14T12:21:10.409Z,22.02
2022-11-14T12:23:58.375Z,22.00
2022-11-14T12:26:46.761Z,21.97
2022-11-14T12:29:35.644Z,22.02
2022-11-14T12:32:07.042Z,22.01
2022-11-14T12:34:38.146Z,22.03
2022-11-14T12:37:15.219Z,22.01
2022-11-14T12:39:41.920Z,22.00
2022-11-14T12:42:10.693Z,22.02
2022-11-14T12:44:38.274Z,22.03
2022-11-14T12:47:07.591Z,22.04
2022-11-14T12:49:52.650Z,22.04
2022-11-14T12:52:41.108Z,22.05
2022-11-14T12:55:26.004Z,22.05
2022-11-14T12:58:10.127Z,22.05
2022-11-14T13:00:45.760Z,22.04
2022-11-14T13:03:37.094Z,22.04
2022-11-14T13:06:11.725Z,22.01
2022-11-14T13:09:16.285Z,22.01
2022-11-14T13:12:02.931Z,21.90
2022-11-14T13:14:49.035Z,21.99
2022-11-14T13:17:43.313Z,21.98
2022-11-14T13:20:49.451Z,21.97
2022-11-14T13:23:25.094Z,21.97
2022-11-14T13:26:09.520Z,21.97
2022-11-14T13:28:39.050Z,21.96
2022-11-14T13:31:21.086Z,21.96
2022-11-14T13:33:58.883Z,21.92
2022-11-14T13:39:34.846Z,21.84
2022-11-14T13:42:21.558Z,21.44
2022-11-14T13:44:54.940Z,21.42
2022-11-14T13:47:28.970Z,21.25
2022-11-14T13:50:17.857Z,21.14
2022-11-14T13:52:46.604Z,20.70
2022-11-14T13:55:22.310Z,20.99
2022-11-14T13:57:54.942Z,20.95
2022-11-14T14:00:21.547Z,20.70
2022-11-14T14:03:20.451Z,20.30
2022-11-14T14:06:08.601Z,20.82
2022-11-14T14:08:34.993Z,20.79
2022-11-14T14:11:20.210Z,20.76
2022-11-14T14:14:11.735Z,20.74
2022-11-14T14:16:38.097Z,20.73
2022-11-14T14:19:10.651Z,20.71
2022-11-14T14:21:40.207Z,20.68
2022-11-14T14:24:17.307Z,19.74
2022-11-14T14:27:02.528Z,20.56
2022-11-14T14:29:50.412Z,20.49
2022-11-14T14:32:18.163Z,19.98
2022-11-14T14:34:44.963Z,19.81
2022-11-14T14:37:29.796Z,20.04
2022-11-14T14:40:04.307Z,19.85
2022-11-14T14:42:36.755Z,20.06
2022-11-14T14:45:03.449Z,19.83
2022-11-14T14:47:33.145Z,20.59
2022-11-14T14:50:01.404Z,19.47
2022-11-14T14:52:36.858Z,20.32
2022-11-14T14:55:04.458Z,19.98
2022-11-14T14:57:31.007Z,20.43
2022-11-14T15:00:16.059Z,20.73
2022-11-14T15:02:42.984Z,20.18
2022-11-14T15:05:09.474Z,20.02
2022-11-14T15:07:36.024Z,20.63
2022-11-14T15:10:02.787Z,20.27
2022-11-14T15:12:29.917Z,20.35
2022-11-14T15:14:56.794Z,20.20
2022-11-14T15:17:23.387Z,21.04
2022-11-14T15:19:51.570Z,20.71
2022-11-14T15:22:17.975Z,21.10
2022-11-14T15:24:44.704Z,20.46
2022-11-14T15:27:11.916Z,20.81
2022-11-14T15:29:48.186Z,20.80
2022-11-14T15:32:22.379Z,19.71
2022-11-14T15:35:25.078Z,20.84
2022-11-14T15:38:28.850Z,21.21
2022-11-14T15:41:28.008Z,21.23
2022-11-14T15:43:55.230Z,20.96
2022-11-14T15:46:37.993Z,20.63
2022-11-14T15:49:19.030Z,20.52
2022-11-14T15:51:46.268Z,21.28
2022-11-14T15:54:29.307Z,20.69
2022-11-14T15:57:00.426Z,20.70
2022-11-14T15:59:27.405Z,20.92
2022-11-14T16:02:18.685Z,20.37
2022-11-14T16:04:47.755Z,20.76
2022-11-14T16:07:15.502Z,20.65
2022-11-14T16:09:42.020Z,20.80
2022-11-14T16:12:08.516Z,20.59
2022-11-14T16:14:35.332Z,21.14
2022-11-14T16:17:01.942Z,21.13
2022-11-14T16:19:28.551Z,20.69
2022-11-14T16:21:59.120Z,21.37
2022-11-14T16:24:31.086Z,21.18
2022-11-14T16:27:00.227Z,20.07
2022-11-14T16:29:26.873Z,20.87
2022-11-14T16:31:55.121Z,20.91
2022-11-14T16:34:23.440Z,20.04
2022-11-14T16:36:54.603Z,20.85
2022-11-14T16:39:21.105Z,20.57
2022-11-14T16:41:47.591Z,20.72
2022-11-14T16:44:16.117Z,20.88
2022-11-14T16:46:43.882Z,20.48
2022-11-14T16:49:17.180Z,21.04
2022-11-14T16:51:48.524Z,20.86
2022-11-14T16:54:17.261Z,21.04
2022-11-14T16:56:43.802Z,20.62
2022-11-14T16:59:10.502Z,19.82
2022-11-14T17:01:37.597Z,20.84
2022-11-14T17:04:04.292Z,20.91
2022-11-14T17:06:30.900Z,20.48
2022-11-14T17:08:57.926Z,19.92
2022-11-14T17:11:24.812Z,20.49
2022-11-14T17:13:51.388Z,20.44
2022-11-14T17:16:18.051Z,20.62
2022-11-14T17:18:44.587Z,20.48
2022-11-14T17:21:11.785Z,20.55
2022-11-14T17:23:38.250Z,20.78
2022-11-14T17:26:05.373Z,20.97
2022-11-14T17:28:32.638Z,21.06
2022-11-14T17:30:59.369Z,20.65
2022-11-14T17:33:25.838Z,20.89
2022-11-14T17:35:52.335Z,20.17
2022-11-14T17:38:18.811Z,20.89
2022-11-14T17:40:45.303Z,20.23
2022-11-14T17:43:15.478Z,20.51
2022-11-14T17:45:41.949Z,20.68
2022-11-14T17:48:08.467Z,20.06
2022-11-14T17:50:38.625Z,20.98
2022-11-14T17:53:05.158Z,20.18
2022-11-14T17:55:31.685Z,20.43
2022-11-14T17:57:58.187Z,21.12
2022-11-14T18:00:24.728Z,20.10
2022-11-14T18:02:52.369Z,19.70
2022-11-14T18:05:18.855Z,21.01
2022-11-14T18:07:45.329Z,20.71
2022-11-14T18:10:11.855Z,19.62
2022-11-14T18:12:38.380Z,20.34
2022-11-14T18:15:06.788Z,20.16
2022-11-14T18:17:33.326Z,21.03
2022-11-14T18:20:02.576Z,20.57
2022-11-14T18:22:29.096Z,20.66
2022-11-14T18:24:55.631Z,20.83
2022-11-14T18:27:22.156Z,20.18
2022-11-14T18:29:48.694Z,17.81
2022-11-14T18:32:15.668Z,20.30
2022-11-14T18:34:42.209Z,18.38
2022-11-14T18:37:08.750Z,18.58
2022-11-14T18:39:35.485Z,17.45
2022-11-14T18:42:02.128Z,21.09
2022-11-14T18:44:28.697Z,18.93
2022-11-14T18:46:55.241Z,19.19
2022-11-14T18:49:21.912Z,17.84
2022-11-14T18:51:48.419Z,17.60
2022-11-14T18:54:16.235Z,18.71
2022-11-14T18:56:42.783Z,20.10
2022-11-14T18:59:09.387Z,20.31
2022-11-14T19:01:36.041Z,21.07
2022-11-14T19:04:04.444Z,21.02
2022-11-14T19:06:32.010Z,21.42
2022-11-14T19:08:59.655Z,18.21
2022-11-14T19:11:44.724Z,21.02
2022-11-14T19:14:11.230Z,20.30
2022-11-14T19:16:37.831Z,20.84
2022-11-14T19:19:07.684Z,20.81
2022-11-14T19:21:34.315Z,20.80
2022-11-14T19:24:01.059Z,20.68
2022-11-14T19:26:27.737Z,19.60
2022-11-14T19:28:54.474Z,20.32
2022-11-14T19:31:21.475Z,19.94
2022-11-14T19:33:47.966Z,19.38
2022-11-14T19:36:18.796Z,19.02
2022-11-14T19:38:58.318Z,20.69
2022-11-14T19:41:26.700Z,20.18
2022-11-14T19:43:54.102Z,20.23
2022-11-14T19:46:21.787Z,20.57
2022-11-14T19:48:48.725Z,21.09
2022-11-14T19:51:17.124Z,21.08
2022-11-14T19:53:45.350Z,20.54
2022-11-14T19:56:13.250Z,21.11
2022-11-14T19:58:40.899Z,20.97
2022-11-14T20:01:11.693Z,20.50
2022-11-14T20:03:38.402Z,20.49
2022-11-14T20:06:07.087Z,20.86
2022-11-14T20:08:36.521Z,20.84
2022-11-14T20:11:06.016Z,17.76
2022-11-14T20:13:34.138Z,18.53
2022-11-14T20:16:00.957Z,19.60
2022-11-14T20:18:29.319Z,19.70
2022-11-14T20:20:58.504Z,19.02
2022-11-14T20:23:26.429Z,21.22
2022-11-14T20:25:53.350Z,20.43
2022-11-14T20:28:20.058Z,15.92
2022-11-14T20:30:46.688Z,16.66
2022-11-14T20:33:16.444Z,19.31
2022-11-14T20:35:43.173Z,17.95
2022-11-14T20:38:09.924Z,19.31
2022-11-14T20:40:36.551Z,16.48
2022-11-14T20:43:03.520Z,17.49
2022-11-14T20:45:31.147Z,19.17
2022-11-14T20:47:57.874Z,18.49
2022-11-14T20:50:27.091Z,16.32
2022-11-14T20:53:00.813Z,17.84
2022-11-14T20:55:31.369Z,18.60
2022-11-14T20:57:57.986Z,16.15
2022-11-14T21:00:24.636Z,15.43
2022-11-14T21:02:56.644Z,17.90
2022-11-14T21:05:25.647Z,18.94
2022-11-14T21:07:52.364Z,14.41
2022-11-14T21:10:37.598Z,16.16
2022-11-14T21:13:38.713Z,18.73
2022-11-14T21:16:07.282Z,19.17
2022-11-14T21:18:34.272Z,20.36
2022-11-14T21:21:15.969Z,16.66
2022-11-14T21:23:43.375Z,19.78
2022-11-14T21:26:10.706Z,21.45
2022-11-14T21:28:44.750Z,19.50
2022-11-14T21:31:27.945Z,17.71
2022-11-14T21:33:59.656Z,18.73
2022-11-14T21:36:47.508Z,20.67
2022-11-14T21:39:15.856Z,19.24
2022-11-14T21:41:43.003Z,18.63
2022-11-14T21:44:13.721Z,19.09
2022-11-14T21:46:46.367Z,19.40
2022-11-14T21:49:13.149Z,15.18
2022-11-14T21:51:41.027Z,19.28
2022-11-14T21:54:07.684Z,15.71
2022-11-14T21:56:38.349Z,17.81
2022-11-14T21:59:15.552Z,21.39
2022-11-14T22:02:03.484Z,19.31
2022-11-14T22:04:34.332Z,19.83
2022-11-14T22:07:05.621Z,19.98
2022-11-14T22:09:32.645Z,20.35
2022-11-14T22:12:01.599Z,19.14
2022-11-14T22:14:29.524Z,20.40
2022-11-14T22:16:57.614Z,17.57
2022-11-14T22:19:24.646Z,20.87
2022-11-14T22:21:53.885Z,16.62
2022-11-14T22:24:23.543Z,16.46
2022-11-14T22:26:50.342Z,19.57
2022-11-14T22:29:16.948Z,16.30
2022-11-14T22:31:43.909Z,16.80
2022-11-14T22:34:11.156Z,15.10
2022-11-14T22:39:20.166Z,20.59
2022-11-14T22:41:46.810Z,17.79
2022-11-14T22:44:13.452Z,16.88
2022-11-14T22:46:40.116Z,16.86
2022-11-14T22:49:06.981Z,17.85
2022-11-14T22:51:37.536Z,20.14
2022-11-14T22:54:04.185Z,20.59
2022-11-14T22:56:30.791Z,20.14
2022-11-14T22:58:58.864Z,20.60
2022-11-14T23:01:26.863Z,20.33
2022-11-14T23:03:57.718Z,19.54
2022-11-14T23:06:24.397Z,21.01
2022-11-14T23:08:51.268Z,20.96
2022-11-14T23:11:19.816Z,20.59
2022-11-14T23:13:48.201Z,20.08
2022-11-14T23:16:18.003Z,20.61
2022-11-14T23:18:44.923Z,19.75
2022-11-14T23:21:13.678Z,20.24
2022-11-14T23:23:40.319Z,20.99
2022-11-14T23:26:25.631Z,20.65
2022-11-14T23:28:52.268Z,21.42
2022-11-14T23:31:19.110Z,20.30
2022-11-14T23:33:46.585Z,20.57
2022-11-14T23:36:13.159Z,21.39
2022-11-14T23:38:39.718Z,20.99
2022-11-14T23:41:06.287Z,20.38
2022-11-14T23:43:33.203Z,20.16
2022-11-14T23:45:59.972Z,19.42
2022-11-14T23:48:26.490Z,20.62
2022-11-14T23:50:56.258Z,20.95
2022-11-14T23:53:22.834Z,20.35
2022-11-14T23:55:56.748Z,20.54
2022-11-14T23:58:23.847Z,20.48
